createdAt,value
2017-04-22T22:02:39.469Z,64.10
2017-04-22T22:03:38.634Z,64.30
2017-04-22T22:04:38.498Z,64.50
2017-04-22T22:05:37.614Z,64.90
2017-04-22T22:06:37.755Z,65.00
2017-04-22T22:07:37.030Z,65.10
2017-04-22T22:08:36.118Z,65.00
2017-04-22T22:09:35.199Z,65.00
2017-04-22T22:10:34.297Z,64.90
2017-04-22T22:11:33.379Z,64.80
2017-04-22T22:12:32.819Z,65.00
2017-04-22T22:13:31.968Z,65.10
2017-04-22T22:14:31.529Z,65.20
2017-04-22T22:15:31.752Z,65.10
2017-04-22T22:16:30.844Z,65.20
2017-04-22T22:17:29.918Z,66.10
2017-04-22T22:18:29.264Z,65.30
2017-04-22T22:19:28.375Z,65.30
2017-04-22T22:20:28.200Z,66.20
2017-04-22T22:21:27.270Z,65.50
2017-04-22T22:22:27.106Z,66.10
2017-04-22T22:23:26.194Z,66.20
2017-04-22T22:24:25.303Z,65.40
2017-04-22T22:25:24.387Z,65.20
2017-04-22T22:26:23.467Z,65.20
2017-04-22T22:27:22.566Z,65.30
2017-04-22T22:28:21.684Z,65.10
2017-04-22T22:29:21.678Z,64.90
2017-04-22T22:30:20.746Z,64.80
2017-04-22T22:31:19.815Z,64.50
2017-04-22T22:32:18.887Z,64.40
2017-04-22T22:33:18.030Z,64.40
2017-04-22T22:34:17.873Z,64.40
2017-04-22T22:35:16.979Z,64.50
2017-04-22T22:36:16.090Z,64.50
2017-04-22T22:37:15.186Z,64.50
2017-04-22T22:38:15.039Z,64.60
2017-04-22T22:39:14.161Z,64.60
2017-04-22T22:40:13.275Z,64.50
2017-04-22T22:41:12.386Z,64.40
2017-04-22T22:42:11.458Z,64.30
2017-04-22T22:43:10.509Z,64.50
2017-04-22T22:44:09.578Z,64.50
2017-04-22T22:45:08.676Z,64.70
2017-04-22T22:46:08.259Z,64.60
2017-04-22T22:47:07.340Z,64.80
2017-04-22T22:48:06.782Z,64.90
2017-04-22T22:49:05.844Z,64.90
2017-04-22T22:50:05.670Z,64.80
2017-04-22T22:51:04.756Z,64.90
2017-04-22T22:52:03.838Z,65.30
2017-04-22T22:53:02.927Z,65.70
2017-04-22T22:54:02.003Z,65.00
2017-04-22T22:55:01.086Z,65.10
2017-04-22T22:56:00.934Z,65.20
2017-04-22T22:57:00.056Z,65.40
2017-04-22T22:57:59.872Z,65.40
2017-04-22T22:58:58.938Z,65.60
2017-04-22T22:59:58.010Z,65.50
2017-04-22T23:00:57.100Z,65.70
2017-04-22T23:01:57.086Z,65.80
2017-04-22T23:02:56.164Z,65.70
2017-04-22T23:03:55.995Z,65.70
2017-04-22T23:04:55.063Z,65.50
2017-04-22T23:05:54.139Z,65.50
2017-04-22T23:06:53.237Z,65.70
2017-04-22T23:07:52.355Z,65.90
2017-04-22T23:08:52.172Z,66.00
2017-04-22T23:09:51.266Z,66.20
2017-04-22T23:10:50.426Z,66.30
2017-04-22T23:11:50.276Z,66.20
2017-04-22T23:12:49.379Z,66.30
2017-04-22T23:13:48.471Z,66.30
2017-04-22T23:14:47.550Z,66.20
2017-04-22T23:15:46.898Z,66.20
2017-04-22T23:16:45.982Z,66.30
2017-04-22T23:17:45.079Z,66.30
2017-04-22T23:18:44.220Z,66.20
2017-04-22T23:19:43.293Z,66.20
2017-04-22T23:20:42.418Z,66.10
2017-04-22T23:21:41.522Z,67.10
2017-04-22T23:22:40.620Z,66.50
2017-04-22T23:23:40.039Z,66.60
2017-04-22T23:24:39.104Z,66.60
2017-04-22T23:25:38.943Z,66.30
2017-04-22T23:26:37.994Z,66.20
2017-04-22T23:27:37.072Z,66.40
2017-04-22T23:28:36.233Z,66.50
2017-04-22T23:29:35.402Z,66.40
2017-04-22T23:30:34.499Z,66.50
2017-04-22T23:31:33.574Z,66.70
2017-04-22T23:32:33.418Z,66.50
2017-04-22T23:33:32.483Z,66.50
2017-04-22T23:34:31.588Z,66.40
2017-04-22T23:35:30.662Z,66.20
2017-04-22T23:36:29.726Z,66.10
2017-04-22T23:37:28.843Z,66.10
2017-04-22T23:38:28.554Z,66.00
2017-04-22T23:39:27.634Z,66.10
2017-04-22T23:40:26.719Z,66.00
2017-04-22T23:41:25.790Z,66.00
2017-04-22T23:42:24.874Z,65.90
2017-04-22T23:43:23.947Z,66.00
2017-04-22T23:44:23.042Z,66.00
2017-04-22T23:45:22.470Z,65.80
2017-04-22T23:46:21.558Z,65.80
2017-04-22T23:47:20.634Z,65.80
2017-04-22T23:48:19.702Z,65.70
2017-04-22T23:49:18.820Z,65.60
2017-04-22T23:50:17.919Z,65.70
2017-04-22T23:51:17.765Z,65.60
2017-04-22T23:52:16.859Z,65.60
2017-04-22T23:53:16.235Z,65.40
2017-04-22T23:54:15.319Z,65.20
2017-04-22T23:55:15.664Z,65.50
2017-04-22T23:56:16.010Z,65.20
2017-04-22T23:57:15.867Z,65.20
2017-04-22T23:58:14.954Z,65.10
2017-04-22T23:59:14.046Z,65.40
